sensor_id;sensor_type;location;lat;lon;timestamp;P1;durP1;ratioP1;P2;durP2;ratioP2
51489;SDS011;57752;53.574;9.736;2023-07-16T00:02:09;11.85;;;3.45;;
51489;SDS011;57752;53.574;9.736;2023-07-16T00:07:09;12.55;;;3.75;;
51489;SDS011;57752;53.574;9.736;2023-07-16T00:12:10;9.95;;;3.20;;
51489;SDS011;57752;53.574;9.736;2023-07-16T00:17:10;10.40;;;3.30;;
51489;SDS011;57752;53.574;9.736;2023-07-16T00:22:11;11.30;;;3.63;;
51489;SDS011;57752;53.574;9.736;2023-07-16T00:27:11;11.40;;;3.13;;
51489;SDS011;57752;53.574;9.736;2023-07-16T00:32:12;11.13;;;3.65;;
51489;SDS011;57752;53.574;9.736;2023-07-16T00:37:12;9.57;;;3.20;;
51489;SDS011;57752;53.574;9.736;2023-07-16T00:42:12;10.45;;;3.75;;
51489;SDS011;57752;53.574;9.736;2023-07-16T00:47:12;10.90;;;3.50;;
51489;SDS011;57752;53.574;9.736;2023-07-16T00:52:14;13.70;;;3.47;;
51489;SDS011;57752;53.574;9.736;2023-07-16T00:57:16;11.38;;;3.92;;
51489;SDS011;57752;53.574;9.736;2023-07-16T01:02:16;11.75;;;4.00;;
51489;SDS011;57752;53.574;9.736;2023-07-16T01:07:16;11.27;;;3.67;;
51489;SDS011;57752;53.574;9.736;2023-07-16T01:12:18;11.25;;;4.40;;
51489;SDS011;57752;53.574;9.736;2023-07-16T01:17:20;11.55;;;3.80;;
51489;SDS011;57752;53.574;9.736;2023-07-16T01:27:25;11.60;;;3.80;;
51489;SDS011;57752;53.574;9.736;2023-07-16T01:32:28;10.77;;;3.28;;
51489;SDS011;57752;53.574;9.736;2023-07-16T01:37:28;11.13;;;3.53;;
51489;SDS011;57752;53.574;9.736;2023-07-16T01:42:28;11.18;;;3.70;;
51489;SDS011;57752;53.574;9.736;2023-07-16T01:52:28;10.15;;;3.78;;
51489;SDS011;57752;53.574;9.736;2023-07-16T01:57:29;12.15;;;3.92;;
51489;SDS011;57752;53.574;9.736;2023-07-16T02:02:29;11.95;;;4.07;;
51489;SDS011;57752;53.574;9.736;2023-07-16T02:07:29;11.02;;;3.78;;
51489;SDS011;57752;53.574;9.736;2023-07-16T02:12:29;11.73;;;3.85;;
51489;SDS011;57752;53.574;9.736;2023-07-16T02:17:29;11.70;;;3.88;;
51489;SDS011;57752;53.574;9.736;2023-07-16T02:22:29;13.15;;;4.20;;
51489;SDS011;57752;53.574;9.736;2023-07-16T02:27:30;11.10;;;3.53;;
51489;SDS011;57752;53.574;9.736;2023-07-16T02:32:30;11.93;;;4.30;;
51489;SDS011;57752;53.574;9.736;2023-07-16T02:37:30;11.93;;;3.65;;
51489;SDS011;57752;53.574;9.736;2023-07-16T02:42:30;11.40;;;3.85;;
51489;SDS011;57752;53.574;9.736;2023-07-16T02:47:30;11.57;;;3.70;;
51489;SDS011;57752;53.574;9.736;2023-07-16T02:52:30;12.50;;;4.22;;
51489;SDS011;57752;53.574;9.736;2023-07-16T02:57:31;13.25;;;4.28;;
51489;SDS011;57752;53.574;9.736;2023-07-16T03:02:31;11.13;;;4.35;;
51489;SDS011;57752;53.574;9.736;2023-07-16T03:07:31;10.77;;;4.10;;
51489;SDS011;57752;53.574;9.736;2023-07-16T03:12:31;13.55;;;4.15;;
51489;SDS011;57752;53.574;9.736;2023-07-16T03:17:31;10.90;;;3.67;;
51489;SDS011;57752;53.574;9.736;2023-07-16T03:22:31;11.40;;;4.40;;
51489;SDS011;57752;53.574;9.736;2023-07-16T03:27:31;15.75;;;4.90;;
51489;SDS011;57752;53.574;9.736;2023-07-16T03:32:32;11.55;;;4.03;;
51489;SDS011;57752;53.574;9.736;2023-07-16T03:37:32;12.65;;;4.97;;
51489;SDS011;57752;53.574;9.736;2023-07-16T03:42:32;11.02;;;4.50;;
51489;SDS011;57752;53.574;9.736;2023-07-16T03:47:33;12.32;;;4.15;;
51489;SDS011;57752;53.574;9.736;2023-07-16T03:52:33;12.13;;;4.97;;
51489;SDS011;57752;53.574;9.736;2023-07-16T03:57:34;15.98;;;4.78;;
51489;SDS011;57752;53.574;9.736;2023-07-16T04:02:34;13.88;;;4.53;;
51489;SDS011;57752;53.574;9.736;2023-07-16T04:07:34;12.67;;;4.30;;
51489;SDS011;57752;53.574;9.736;2023-07-16T04:12:34;14.55;;;4.70;;
51489;SDS011;57752;53.574;9.736;2023-07-16T04:17:34;11.35;;;4.18;;
51489;SDS011;57752;53.574;9.736;2023-07-16T04:22:35;11.32;;;4.78;;
51489;SDS011;57752;53.574;9.736;2023-07-16T04:27:36;14.95;;;4.30;;
51489;SDS011;57752;53.574;9.736;2023-07-16T04:32:36;12.10;;;3.90;;
51489;SDS011;57752;53.574;9.736;2023-07-16T04:37:36;11.75;;;3.88;;
51489;SDS011;57752;53.574;9.736;2023-07-16T04:42:36;12.35;;;3.88;;
51489;SDS011;57752;53.574;9.736;2023-07-16T04:47:36;14.85;;;4.25;;
51489;SDS011;57752;53.574;9.736;2023-07-16T04:52:37;11.65;;;3.40;;
51489;SDS011;57752;53.574;9.736;2023-07-16T04:57:37;13.73;;;3.92;;
51489;SDS011;57752;53.574;9.736;2023-07-16T05:02:37;13.35;;;3.42;;
51489;SDS011;57752;53.574;9.736;2023-07-16T05:07:38;13.02;;;3.65;;
51489;SDS011;57752;53.574;9.736;2023-07-16T05:12:38;13.13;;;3.28;;
51489;SDS011;57752;53.574;9.736;2023-07-16T05:17:38;11.32;;;3.58;;
51489;SDS011;57752;53.574;9.736;2023-07-16T05:22:39;15.43;;;3.45;;
51489;SDS011;57752;53.574;9.736;2023-07-16T05:27:39;11.00;;;3.53;;
51489;SDS011;57752;53.574;9.736;2023-07-16T05:32:39;10.13;;;3.00;;
51489;SDS011;57752;53.574;9.736;2023-07-16T05:37:40;10.27;;;2.67;;
51489;SDS011;57752;53.574;9.736;2023-07-16T05:42:40;10.80;;;3.08;;
51489;SDS011;57752;53.574;9.736;2023-07-16T05:47:40;10.25;;;3.03;;
51489;SDS011;57752;53.574;9.736;2023-07-16T05:52:40;13.73;;;2.80;;
51489;SDS011;57752;53.574;9.736;2023-07-16T05:57:40;10.80;;;3.22;;
51489;SDS011;57752;53.574;9.736;2023-07-16T06:02:40;12.20;;;3.08;;
51489;SDS011;57752;53.574;9.736;2023-07-16T06:07:41;11.57;;;3.28;;
51489;SDS011;57752;53.574;9.736;2023-07-16T06:12:41;12.77;;;3.00;;
51489;SDS011;57752;53.574;9.736;2023-07-16T06:17:41;10.75;;;3.17;;
51489;SDS011;57752;53.574;9.736;2023-07-16T06:22:41;12.60;;;3.08;;
51489;SDS011;57752;53.574;9.736;2023-07-16T06:27:41;11.18;;;3.20;;
51489;SDS011;57752;53.574;9.736;2023-07-16T06:32:41;10.50;;;3.03;;
51489;SDS011;57752;53.574;9.736;2023-07-16T06:37:41;10.65;;;3.20;;
51489;SDS011;57752;53.574;9.736;2023-07-16T06:42:42;11.32;;;3.90;;
51489;SDS011;57752;53.574;9.736;2023-07-16T06:47:42;13.48;;;3.58;;
51489;SDS011;57752;53.574;9.736;2023-07-16T06:52:42;15.93;;;4.20;;
51489;SDS011;57752;53.574;9.736;2023-07-16T06:57:42;14.48;;;3.97;;
51489;SDS011;57752;53.574;9.736;2023-07-16T07:02:42;15.18;;;4.00;;
51489;SDS011;57752;53.574;9.736;2023-07-16T07:07:42;11.63;;;3.30;;
51489;SDS011;57752;53.574;9.736;2023-07-16T07:12:44;14.43;;;3.97;;
51489;SDS011;57752;53.574;9.736;2023-07-16T07:17:45;15.02;;;4.15;;
51489;SDS011;57752;53.574;9.736;2023-07-16T07:22:46;13.50;;;3.53;;
51489;SDS011;57752;53.574;9.736;2023-07-16T07:27:46;16.13;;;3.88;;
51489;SDS011;57752;53.574;9.736;2023-07-16T07:32:46;13.35;;;4.38;;
51489;SDS011;57752;53.574;9.736;2023-07-16T07:37:46;14.70;;;3.90;;
51489;SDS011;57752;53.574;9.736;2023-07-16T07:42:46;12.27;;;3.78;;
51489;SDS011;57752;53.574;9.736;2023-07-16T07:47:47;15.40;;;4.40;;
51489;SDS011;57752;53.574;9.736;2023-07-16T07:52:47;13.40;;;4.00;;
51489;SDS011;57752;53.574;9.736;2023-07-16T07:57:47;14.00;;;3.58;;
51489;SDS011;57752;53.574;9.736;2023-07-16T08:02:47;12.65;;;3.88;;
51489;SDS011;57752;53.574;9.736;2023-07-16T08:07:47;12.32;;;3.60;;
51489;SDS011;57752;53.574;9.736;2023-07-16T08:12:48;16.00;;;3.60;;
51489;SDS011;57752;53.574;9.736;2023-07-16T08:17:48;12.57;;;3.38;;
51489;SDS011;57752;53.574;9.736;2023-07-16T08:22:48;11.83;;;3.50;;
51489;SDS011;57752;53.574;9.736;2023-07-16T08:27:48;13.68;;;3.50;;
51489;SDS011;57752;53.574;9.736;2023-07-16T08:32:48;13.40;;;3.58;;
51489;SDS011;57752;53.574;9.736;2023-07-16T08:37:49;13.88;;;4.03;;
51489;SDS011;57752;53.574;9.736;2023-07-16T08:42:49;13.18;;;4.88;;
51489;SDS011;57752;53.574;9.736;2023-07-16T08:47:49;18.85;;;4.97;;
51489;SDS011;57752;53.574;9.736;2023-07-16T08:52:49;16.48;;;5.13;;
51489;SDS011;57752;53.574;9.736;2023-07-16T08:57:49;15.55;;;6.20;;
51489;SDS011;57752;53.574;9.736;2023-07-16T09:02:50;17.17;;;7.10;;
51489;SDS011;57752;53.574;9.736;2023-07-16T09:07:51;14.98;;;6.45;;
51489;SDS011;57752;53.574;9.736;2023-07-16T09:12:51;17.63;;;6.50;;
51489;SDS011;57752;53.574;9.736;2023-07-16T09:17:53;13.77;;;6.63;;
51489;SDS011;57752;53.574;9.736;2023-07-16T09:22:54;15.57;;;6.00;;
51489;SDS011;57752;53.574;9.736;2023-07-16T09:27:56;13.67;;;5.33;;
51489;SDS011;57752;53.574;9.736;2023-07-16T09:32:57;20.35;;;6.28;;
51489;SDS011;57752;53.574;9.736;2023-07-16T09:37:57;14.88;;;5.10;;
51489;SDS011;57752;53.574;9.736;2023-07-16T09:42:57;19.25;;;5.10;;
51489;SDS011;57752;53.574;9.736;2023-07-16T09:47:58;12.52;;;4.68;;
51489;SDS011;57752;53.574;9.736;2023-07-16T09:52:58;12.00;;;4.80;;
51489;SDS011;57752;53.574;9.736;2023-07-16T09:57:59;13.23;;;5.18;;
51489;SDS011;57752;53.574;9.736;2023-07-16T10:03:00;16.70;;;4.67;;
51489;SDS011;57752;53.574;9.736;2023-07-16T10:08:00;15.30;;;4.40;;
51489;SDS011;57752;53.574;9.736;2023-07-16T10:13:01;18.25;;;4.90;;
51489;SDS011;57752;53.574;9.736;2023-07-16T10:18:02;12.43;;;4.20;;
51489;SDS011;57752;53.574;9.736;2023-07-16T10:23:12;13.87;;;4.37;;
51489;SDS011;57752;53.574;9.736;2023-07-16T10:28:12;14.90;;;4.68;;
51489;SDS011;57752;53.574;9.736;2023-07-16T10:33:13;17.95;;;4.90;;
51489;SDS011;57752;53.574;9.736;2023-07-16T10:38:13;14.23;;;4.70;;
51489;SDS011;57752;53.574;9.736;2023-07-16T10:43:13;15.38;;;4.70;;
51489;SDS011;57752;53.574;9.736;2023-07-16T10:48:14;12.70;;;4.33;;
51489;SDS011;57752;53.574;9.736;2023-07-16T10:53:15;14.55;;;4.22;;
51489;SDS011;57752;53.574;9.736;2023-07-16T10:58:19;13.20;;;4.25;;
51489;SDS011;57752;53.574;9.736;2023-07-16T11:03:19;14.60;;;4.55;;
51489;SDS011;57752;53.574;9.736;2023-07-16T11:08:22;10.98;;;4.07;;
51489;SDS011;57752;53.574;9.736;2023-07-16T11:13:31;12.50;;;4.43;;
51489;SDS011;57752;53.574;9.736;2023-07-16T11:18:31;14.07;;;4.22;;
51489;SDS011;57752;53.574;9.736;2023-07-16T11:23:34;12.35;;;4.50;;
51489;SDS011;57752;53.574;9.736;2023-07-16T11:28:38;13.02;;;4.13;;
51489;SDS011;57752;53.574;9.736;2023-07-16T11:33:41;11.70;;;4.78;;
51489;SDS011;57752;53.574;9.736;2023-07-16T11:38:41;14.02;;;4.22;;
51489;SDS011;57752;53.574;9.736;2023-07-16T11:43:41;12.93;;;4.88;;
51489;SDS011;57752;53.574;9.736;2023-07-16T11:48:41;13.80;;;4.13;;
51489;SDS011;57752;53.574;9.736;2023-07-16T11:53:42;13.35;;;4.25;;
51489;SDS011;57752;53.574;9.736;2023-07-16T11:58:42;12.27;;;4.35;;
51489;SDS011;57752;53.574;9.736;2023-07-16T12:03:42;12.70;;;4.05;;
51489;SDS011;57752;53.574;9.736;2023-07-16T12:08:42;11.93;;;3.90;;
51489;SDS011;57752;53.574;9.736;2023-07-16T12:13:42;11.48;;;4.20;;
51489;SDS011;57752;53.574;9.736;2023-07-16T12:18:42;14.05;;;4.25;;
51489;SDS011;57752;53.574;9.736;2023-07-16T12:23:43;11.63;;;3.70;;
51489;SDS011;57752;53.574;9.736;2023-07-16T12:28:43;11.02;;;3.75;;
51489;SDS011;57752;53.574;9.736;2023-07-16T12:33:43;12.77;;;3.83;;
51489;SDS011;57752;53.574;9.736;2023-07-16T12:38:43;11.10;;;3.67;;
51489;SDS011;57752;53.574;9.736;2023-07-16T12:43:43;13.57;;;3.70;;
51489;SDS011;57752;53.574;9.736;2023-07-16T12:48:44;12.10;;;3.50;;
51489;SDS011;57752;53.574;9.736;2023-07-16T12:53:44;12.63;;;3.73;;
51489;SDS011;57752;53.574;9.736;2023-07-16T12:58:44;11.53;;;3.63;;
51489;SDS011;57752;53.574;9.736;2023-07-16T13:03:44;11.18;;;3.60;;
51489;SDS011;57752;53.574;9.736;2023-07-16T13:08:45;11.07;;;3.95;;
51489;SDS011;57752;53.574;9.736;2023-07-16T13:13:45;11.48;;;3.85;;
51489;SDS011;57752;53.574;9.736;2023-07-16T13:18:45;12.23;;;3.75;;
51489;SDS011;57752;53.574;9.736;2023-07-16T13:23:45;12.32;;;4.00;;
51489;SDS011;57752;53.574;9.736;2023-07-16T13:28:45;10.65;;;3.42;;
51489;SDS011;57752;53.574;9.736;2023-07-16T13:33:45;13.18;;;3.63;;
51489;SDS011;57752;53.574;9.736;2023-07-16T13:38:45;12.52;;;3.80;;
51489;SDS011;57752;53.574;9.736;2023-07-16T13:43:45;12.25;;;3.92;;
51489;SDS011;57752;53.574;9.736;2023-07-16T13:48:46;13.35;;;3.88;;
51489;SDS011;57752;53.574;9.736;2023-07-16T13:53:46;10.68;;;3.60;;
51489;SDS011;57752;53.574;9.736;2023-07-16T13:58:46;11.50;;;3.95;;
51489;SDS011;57752;53.574;9.736;2023-07-16T14:03:47;12.50;;;3.63;;
51489;SDS011;57752;53.574;9.736;2023-07-16T14:08:47;11.43;;;3.75;;
51489;SDS011;57752;53.574;9.736;2023-07-16T14:13:48;12.85;;;4.13;;
51489;SDS011;57752;53.574;9.736;2023-07-16T14:18:51;11.38;;;4.03;;
51489;SDS011;57752;53.574;9.736;2023-07-16T14:23:52;12.23;;;3.70;;
51489;SDS011;57752;53.574;9.736;2023-07-16T14:28:52;13.15;;;3.83;;
51489;SDS011;57752;53.574;9.736;2023-07-16T14:33:52;10.50;;;3.67;;
51489;SDS011;57752;53.574;9.736;2023-07-16T14:38:52;12.35;;;3.75;;
51489;SDS011;57752;53.574;9.736;2023-07-16T14:43:52;12.43;;;3.60;;
51489;SDS011;57752;53.574;9.736;2023-07-16T14:48:52;10.15;;;3.70;;
51489;SDS011;57752;53.574;9.736;2023-07-16T14:53:56;10.82;;;3.45;;
51489;SDS011;57752;53.574;9.736;2023-07-16T14:58:56;14.00;;;3.70;;
51489;SDS011;57752;53.574;9.736;2023-07-16T15:03:56;11.93;;;3.90;;
51489;SDS011;57752;53.574;9.736;2023-07-16T15:08:56;11.65;;;3.60;;
51489;SDS011;57752;53.574;9.736;2023-07-16T15:13:56;13.10;;;3.65;;
51489;SDS011;57752;53.574;9.736;2023-07-16T15:18:57;10.27;;;3.55;;
51489;SDS011;57752;53.574;9.736;2023-07-16T15:23:57;12.17;;;3.80;;
51489;SDS011;57752;53.574;9.736;2023-07-16T15:28:57;13.05;;;3.70;;
51489;SDS011;57752;53.574;9.736;2023-07-16T15:33:57;12.93;;;4.25;;
51489;SDS011;57752;53.574;9.736;2023-07-16T15:38:58;11.02;;;3.88;;
51489;SDS011;57752;53.574;9.736;2023-07-16T15:43:58;11.70;;;3.72;;
51489;SDS011;57752;53.574;9.736;2023-07-16T15:48:58;11.50;;;3.95;;
51489;SDS011;57752;53.574;9.736;2023-07-16T15:53:58;12.00;;;3.88;;
51489;SDS011;57752;53.574;9.736;2023-07-16T15:58:59;11.45;;;4.10;;
51489;SDS011;57752;53.574;9.736;2023-07-16T16:03:59;15.18;;;3.92;;
51489;SDS011;57752;53.574;9.736;2023-07-16T16:08:59;13.52;;;4.28;;
51489;SDS011;57752;53.574;9.736;2023-07-16T16:13:59;9.95;;;3.60;;
51489;SDS011;57752;53.574;9.736;2023-07-16T16:18:59;12.43;;;4.13;;
51489;SDS011;57752;53.574;9.736;2023-07-16T16:24:00;13.02;;;4.20;;
51489;SDS011;57752;53.574;9.736;2023-07-16T16:29:00;11.93;;;3.92;;
51489;SDS011;57752;53.574;9.736;2023-07-16T16:34:00;12.63;;;4.20;;
51489;SDS011;57752;53.574;9.736;2023-07-16T16:39:01;12.07;;;4.30;;
51489;SDS011;57752;53.574;9.736;2023-07-16T16:44:01;11.77;;;3.85;;
51489;SDS011;57752;53.574;9.736;2023-07-16T16:49:01;12.88;;;4.45;;
51489;SDS011;57752;53.574;9.736;2023-07-16T16:54:02;12.13;;;4.22;;
51489;SDS011;57752;53.574;9.736;2023-07-16T16:59:03;13.50;;;4.63;;
51489;SDS011;57752;53.574;9.736;2023-07-16T17:04:03;10.35;;;4.20;;
51489;SDS011;57752;53.574;9.736;2023-07-16T17:09:04;11.55;;;4.00;;
51489;SDS011;57752;53.574;9.736;2023-07-16T17:14:04;13.55;;;3.95;;
51489;SDS011;57752;53.574;9.736;2023-07-16T17:19:05;12.43;;;4.00;;
51489;SDS011;57752;53.574;9.736;2023-07-16T17:24:05;11.57;;;4.18;;
51489;SDS011;57752;53.574;9.736;2023-07-16T17:29:05;13.63;;;4.15;;
51489;SDS011;57752;53.574;9.736;2023-07-16T17:34:05;14.43;;;4.10;;
51489;SDS011;57752;53.574;9.736;2023-07-16T17:39:05;12.20;;;3.97;;
51489;SDS011;57752;53.574;9.736;2023-07-16T17:44:06;14.25;;;4.05;;
51489;SDS011;57752;53.574;9.736;2023-07-16T17:49:06;10.55;;;3.85;;
51489;SDS011;57752;53.574;9.736;2023-07-16T17:54:06;12.95;;;3.90;;
51489;SDS011;57752;53.574;9.736;2023-07-16T17:59:06;12.43;;;4.07;;
51489;SDS011;57752;53.574;9.736;2023-07-16T18:04:06;11.17;;;3.93;;
51489;SDS011;57752;53.574;9.736;2023-07-16T18:09:07;12.68;;;4.50;;
51489;SDS011;57752;53.574;9.736;2023-07-16T18:14:07;11.73;;;4.10;;
51489;SDS011;57752;53.574;9.736;2023-07-16T18:19:08;10.52;;;4.22;;
51489;SDS011;57752;53.574;9.736;2023-07-16T18:24:10;11.65;;;4.07;;
51489;SDS011;57752;53.574;9.736;2023-07-16T18:29:11;11.68;;;4.20;;
51489;SDS011;57752;53.574;9.736;2023-07-16T18:34:11;12.35;;;4.25;;
51489;SDS011;57752;53.574;9.736;2023-07-16T18:39:11;13.60;;;4.63;;
51489;SDS011;57752;53.574;9.736;2023-07-16T18:44:11;12.50;;;4.32;;
51489;SDS011;57752;53.574;9.736;2023-07-16T18:49:12;12.00;;;4.30;;
51489;SDS011;57752;53.574;9.736;2023-07-16T18:54:12;11.73;;;4.18;;
51489;SDS011;57752;53.574;9.736;2023-07-16T18:59:12;12.75;;;4.35;;
51489;SDS011;57752;53.574;9.736;2023-07-16T19:04:12;12.70;;;4.25;;
51489;SDS011;57752;53.574;9.736;2023-07-16T19:09:12;12.00;;;4.45;;
51489;SDS011;57752;53.574;9.736;2023-07-16T19:14:12;13.02;;;4.32;;
51489;SDS011;57752;53.574;9.736;2023-07-16T19:19:13;12.25;;;4.60;;
51489;SDS011;57752;53.574;9.736;2023-07-16T19:24:13;12.30;;;4.50;;
51489;SDS011;57752;53.574;9.736;2023-07-16T19:29:13;13.13;;;4.40;;
51489;SDS011;57752;53.574;9.736;2023-07-16T19:34:13;12.15;;;4.18;;
51489;SDS011;57752;53.574;9.736;2023-07-16T19:39:14;12.57;;;4.63;;
51489;SDS011;57752;53.574;9.736;2023-07-16T19:44:14;12.70;;;4.40;;
51489;SDS011;57752;53.574;9.736;2023-07-16T19:49:14;13.95;;;4.35;;
51489;SDS011;57752;53.574;9.736;2023-07-16T19:54:14;13.27;;;4.60;;
51489;SDS011;57752;53.574;9.736;2023-07-16T19:59:14;14.07;;;5.10;;
51489;SDS011;57752;53.574;9.736;2023-07-16T20:04:14;12.73;;;4.65;;
51489;SDS011;57752;53.574;9.736;2023-07-16T20:09:14;11.65;;;4.40;;
51489;SDS011;57752;53.574;9.736;2023-07-16T20:14:15;13.73;;;4.80;;
51489;SDS011;57752;53.574;9.736;2023-07-16T20:19:15;14.50;;;4.53;;
51489;SDS011;57752;53.574;9.736;2023-07-16T20:24:15;12.85;;;4.65;;
51489;SDS011;57752;53.574;9.736;2023-07-16T20:29:16;11.25;;;4.53;;
51489;SDS011;57752;53.574;9.736;2023-07-16T20:34:16;12.65;;;4.57;;
51489;SDS011;57752;53.574;9.736;2023-07-16T20:39:16;13.68;;;4.47;;
51489;SDS011;57752;53.574;9.736;2023-07-16T20:44:16;11.40;;;4.70;;
51489;SDS011;57752;53.574;9.736;2023-07-16T20:49:16;12.50;;;4.30;;
51489;SDS011;57752;53.574;9.736;2023-07-16T20:54:16;16.48;;;4.70;;
51489;SDS011;57752;53.574;9.736;2023-07-16T20:59:17;12.18;;;5.30;;
51489;SDS011;57752;53.574;9.736;2023-07-16T21:04:17;13.75;;;5.60;;
51489;SDS011;57752;53.574;9.736;2023-07-16T21:09:17;15.13;;;5.53;;
51489;SDS011;57752;53.574;9.736;2023-07-16T21:14:17;12.75;;;4.75;;
51489;SDS011;57752;53.574;9.736;2023-07-16T21:19:17;15.60;;;5.57;;
51489;SDS011;57752;53.574;9.736;2023-07-16T21:24:17;16.83;;;5.28;;
51489;SDS011;57752;53.574;9.736;2023-07-16T21:29:17;15.23;;;5.25;;
51489;SDS011;57752;53.574;9.736;2023-07-16T21:34:18;16.77;;;5.82;;
51489;SDS011;57752;53.574;9.736;2023-07-16T21:39:18;13.07;;;5.40;;
51489;SDS011;57752;53.574;9.736;2023-07-16T21:44:18;16.30;;;5.93;;
51489;SDS011;57752;53.574;9.736;2023-07-16T21:49:18;14.32;;;5.43;;
51489;SDS011;57752;53.574;9.736;2023-07-16T21:54:18;14.27;;;5.53;;
51489;SDS011;57752;53.574;9.736;2023-07-16T21:59:19;15.80;;;5.72;;
51489;SDS011;57752;53.574;9.736;2023-07-16T22:04:19;15.23;;;5.25;;
51489;SDS011;57752;53.574;9.736;2023-07-16T22:09:19;13.30;;;5.13;;
51489;SDS011;57752;53.574;9.736;2023-07-16T22:14:19;12.82;;;5.45;;
51489;SDS011;57752;53.574;9.736;2023-07-16T22:19:19;16.42;;;5.75;;
51489;SDS011;57752;53.574;9.736;2023-07-16T22:24:19;13.70;;;5.30;;
51489;SDS011;57752;53.574;9.736;2023-07-16T22:29:20;13.07;;;5.07;;
51489;SDS011;57752;53.574;9.736;2023-07-16T22:34:20;16.23;;;5.38;;
51489;SDS011;57752;53.574;9.736;2023-07-16T22:39:20;12.13;;;4.85;;
51489;SDS011;57752;53.574;9.736;2023-07-16T22:44:20;16.05;;;5.38;;
51489;SDS011;57752;53.574;9.736;2023-07-16T22:49:20;13.10;;;5.00;;
51489;SDS011;57752;53.574;9.736;2023-07-16T22:54:20;11.75;;;4.13;;
51489;SDS011;57752;53.574;9.736;2023-07-16T22:59:20;11.25;;;4.30;;
51489;SDS011;57752;53.574;9.736;2023-07-16T23:04:21;12.35;;;4.25;;
51489;SDS011;57752;53.574;9.736;2023-07-16T23:09:22;11.23;;;4.10;;
51489;SDS011;57752;53.574;9.736;2023-07-16T23:14:22;11.18;;;4.38;;
51489;SDS011;57752;53.574;9.736;2023-07-16T23:19:22;11.70;;;4.15;;
51489;SDS011;57752;53.574;9.736;2023-07-16T23:24:23;11.23;;;4.07;;
51489;SDS011;57752;53.574;9.736;2023-07-16T23:29:23;12.35;;;3.90;;
51489;SDS011;57752;53.574;9.736;2023-07-16T23:34:23;14.27;;;5.22;;
51489;SDS011;57752;53.574;9.736;2023-07-16T23:39:23;11.60;;;4.22;;
51489;SDS011;57752;53.574;9.736;2023-07-16T23:44:23;13.48;;;4.18;;
51489;SDS011;57752;53.574;9.736;2023-07-16T23:49:24;14.20;;;4.75;;
51489;SDS011;57752;53.574;9.736;2023-07-16T23:54:24;13.30;;;4.18;;
51489;SDS011;57752;53.574;9.736;2023-07-16T23:59:25;11.98;;;4.05;;
